Time;durP1;ratioP1;P1;durP2;ratioP2;P2;SDS_P1;SDS_P2;PMS_P1;PMS_P2;Temp;Humidity;BMP_temperature;BMP_pressure;BME280_temperature;BME280_humidity;BME280_pressure;Samples;Min_cycle;Max_cycle;Signal;HPM_P1;HPM_P2
2021/12/10 00:01:03;;;;;;;11.00;2.03;;;10.90;91.60;;;;;;5113137;28;20016;-67
2021/12/10 00:03:36;;;;;;;11.45;2.75;;;10.90;91.10;;;;;;5110184;28;20426;-67
2021/12/10 00:06:18;;;;;;;12.30;1.83;;;10.90;91.40;;;;;;5108216;28;20398;-67
2021/12/10 00:08:48;;;;;;;10.93;2.00;;;10.90;91.30;;;;;;5110202;28;20491;-68
2021/12/10 00:11:26;;;;;;;10.40;1.60;;;10.90;91.30;;;;;;5100583;28;20119;-68
2021/12/10 00:13:52;;;;;;;9.43;1.75;;;10.90;91.10;;;;;;5112613;27;20055;-67
2021/12/10 00:16:19;;;;;;;6.65;1.65;;;10.90;91.10;;;;;;5112209;27;20031;-68
2021/12/10 00:18:53;;;;;;;11.38;2.08;;;10.80;91.10;;;;;;5116000;28;20035;-68
2021/12/10 00:21:22;;;;;;;9.93;2.15;;;10.90;91.10;;;;;;5114983;28;20074;-68
2021/12/10 00:23:50;;;;;;;9.68;1.95;;;10.90;91.10;;;;;;5111784;27;20744;-68
2021/12/10 00:26:18;;;;;;;9.93;1.80;;;10.80;90.80;;;;;;5112497;28;20483;-68
2021/12/10 00:28:44;;;;;;;13.55;2.13;;;10.80;90.80;;;;;;5112340;28;20055;-68
2021/12/10 00:31:32;;;;;;;8.98;2.25;;;10.80;90.90;;;;;;5112812;27;20052;-68
2021/12/10 00:34:06;;;;;;;7.40;1.70;;;10.80;90.90;;;;;;5121757;27;20028;-68
2021/12/10 00:36:33;;;;;;;8.82;1.52;;;10.80;90.80;;;;;;5114292;27;20020;-67
2021/12/10 00:39:01;;;;;;;8.13;1.75;;;10.80;90.70;;;;;;5112137;27;20131;-68
2021/12/10 00:41:28;;;;;;;7.70;1.67;;;10.80;90.60;;;;;;5112192;27;20023;-67
2021/12/10 00:43:54;;;;;;;8.13;1.67;;;10.70;90.60;;;;;;5105333;28;20480;-67
2021/12/10 00:46:20;;;;;;;8.02;1.35;;;10.70;90.70;;;;;;5099826;28;20088;-68
2021/12/10 00:48:46;;;;;;;7.90;1.45;;;10.70;90.70;;;;;;5115962;28;20059;-68
2021/12/10 00:51:13;;;;;;;8.55;1.35;;;10.70;90.60;;;;;;5114013;28;20027;-67
2021/12/10 00:53:39;;;;;;;6.90;1.23;;;10.60;90.70;;;;;;5111538;28;20503;-68
2021/12/10 00:56:06;;;;;;;8.30;1.63;;;10.60;90.60;;;;;;5097289;28;20103;-67
2021/12/10 00:58:32;;;;;;;6.15;1.50;;;10.60;90.50;;;;;;5111745;28;20098;-67
2021/12/10 01:01:05;;;;;;;6.90;1.20;;;10.50;90.50;;;;;;5116090;27;20015;-68
2021/12/10 01:03:41;;;;;;;4.47;0.90;;;10.50;90.40;;;;;;5113837;28;20511;-67
2021/12/10 01:06:11;;;;;;;7.93;1.35;;;10.50;90.30;;;;;;5111805;27;20036;-67
2021/12/10 01:08:43;;;;;;;4.50;1.10;;;10.40;90.20;;;;;;5111133;28;20035;-68
2021/12/10 01:11:31;;;;;;;5.60;1.15;;;10.50;90.40;;;;;;5111616;27;20097;-67
2021/12/10 01:14:10;;;;;;;6.28;1.23;;;10.40;90.40;;;;;;5111829;27;20506;-67
2021/12/10 01:27:31;;;;;;;11.52;1.30;;;10.10;90.40;;;;;;5111274;28;20045;-67
2021/12/10 01:30:06;;;;;;;4.15;1.45;;;10.00;90.50;;;;;;5094769;28;20027;-67
2021/12/10 01:32:36;;;;;;;4.25;1.10;;;10.10;90.40;;;;;;5108417;28;20399;-67
2021/12/10 01:35:04;;;;;;;6.03;1.05;;;10.00;90.40;;;;;;5098727;28;20031;-67
2021/12/10 01:37:30;;;;;;;7.13;1.10;;;10.00;90.30;;;;;;5090052;28;20562;-67
2021/12/10 01:39:56;;;;;;;7.45;1.45;;;10.00;90.40;;;;;;5110419;28;20040;-67
2021/12/10 01:44:57;;;;;;;4.03;0.82;;;9.90;90.40;;;;;;5107943;28;20058;-67
2021/12/10 01:47:34;;;;;;;4.18;0.80;;;9.90;90.30;;;;;;5107851;28;20173;-67
2021/12/10 01:50:00;;;;;;;4.05;0.80;;;9.90;90.10;;;;;;5107601;28;20034;-67
2021/12/10 01:52:27;;;;;;;2.95;0.68;;;9.80;90.00;;;;;;5107769;28;20039;-68
2021/12/10 01:54:57;;;;;;;4.88;0.98;;;9.80;90.10;;;;;;5110114;27;20512;-68
2021/12/10 01:57:26;;;;;;;3.42;0.60;;;9.70;90.10;;;;;;5110742;28;20491;-67
2021/12/10 01:59:52;;;;;;;4.28;0.90;;;9.70;90.00;;;;;;5108031;28;20518;-67
2021/12/10 02:02:23;;;;;;;4.30;0.85;;;9.60;90.00;;;;;;5109468;27;20031;-68
2021/12/10 02:04:50;;;;;;;8.65;1.17;;;9.60;90.20;;;;;;5107476;28;20028;-68
2021/12/10 02:07:19;;;;;;;6.88;0.90;;;9.70;90.10;;;;;;5092141;28;20035;-68
2021/12/10 02:09:45;;;;;;;4.60;1.05;;;9.70;90.20;;;;;;5106913;28;20062;-67
2021/12/10 02:12:12;;;;;;;4.93;0.80;;;9.60;90.10;;;;;;5094404;28;20028;-67
2021/12/10 02:14:38;;;;;;;5.45;1.27;;;9.70;90.20;;;;;;5107674;28;20506;-68
2021/12/10 02:17:05;;;;;;;10.63;1.20;;;9.70;90.20;;;;;;5107348;28;20019;-68
2021/12/10 02:19:30;;;;;;;7.18;1.30;;;9.60;90.10;;;;;;5107126;28;20030;-68
2021/12/10 02:21:58;;;;;;;10.18;1.60;;;9.70;90.10;;;;;;5109741;28;20431;-68
2021/12/10 02:24:24;;;;;;;8.23;1.58;;;9.70;90.00;;;;;;5094936;28;20023;-67
2021/12/10 02:27:00;;;;;;;10.40;1.42;;;9.70;90.10;;;;;;5107094;28;20411;-67
2021/12/10 02:29:32;;;;;;;6.32;1.08;;;9.70;90.00;;;;;;5107194;28;20043;-67
2021/12/10 02:31:58;;;;;;;7.70;1.25;;;9.70;89.90;;;;;;5107399;28;20070;-67
2021/12/10 02:34:25;;;;;;;6.40;0.98;;;9.60;90.00;;;;;;5116674;27;20083;-68
2021/12/10 02:36:51;;;;;;;4.22;0.82;;;9.60;90.00;;;;;;5110149;28;20028;-68
2021/12/10 02:39:22;;;;;;;8.95;1.73;;;9.60;89.70;;;;;;5107809;28;20039;-69
2021/12/10 02:41:48;;;;;;;7.00;1.60;;;9.60;89.60;;;;;;5107107;28;20488;-69
2021/12/10 02:44:17;;;;;;;8.40;1.13;;;9.60;89.80;;;;;;5107111;28;20035;-69
2021/12/10 02:46:43;;;;;;;7.07;1.27;;;9.60;89.60;;;;;;5106939;28;20035;-69
2021/12/10 02:49:11;;;;;;;6.85;1.02;;;9.70;89.90;;;;;;5090535;28;20030;-68
2021/12/10 02:51:37;;;;;;;8.00;1.40;;;9.70;89.90;;;;;;5093525;28;20087;-69
2021/12/10 02:54:05;;;;;;;7.30;1.00;;;9.70;90.00;;;;;;5105406;28;20043;-68
2021/12/10 02:56:32;;;;;;;6.65;1.17;;;9.70;90.00;;;;;;5106691;28;20084;-69
2021/12/10 02:59:02;;;;;;;3.10;0.88;;;9.60;90.00;;;;;;5106573;28;20033;-68
2021/12/10 03:01:27;;;;;;;6.85;0.88;;;9.70;90.00;;;;;;5108523;27;20024;-68
2021/12/10 03:03:53;;;;;;;5.15;1.00;;;9.70;90.10;;;;;;5108744;28;20019;-69
2021/12/10 03:06:19;;;;;;;9.30;1.33;;;9.70;90.10;;;;;;5109458;28;20156;-69
2021/12/10 03:08:49;;;;;;;5.57;1.55;;;9.70;90.00;;;;;;5109112;27;20055;-69
2021/12/10 03:11:18;;;;;;;7.00;0.90;;;9.70;90.00;;;;;;5107153;28;20038;-68
2021/12/10 03:13:44;;;;;;;6.95;1.10;;;9.70;90.10;;;;;;5106181;28;20504;-69
2021/12/10 03:16:10;;;;;;;4.45;0.98;;;9.70;90.20;;;;;;5089706;28;20039;-69
2021/12/10 03:18:39;;;;;;;9.43;1.55;;;9.60;90.00;;;;;;5108761;28;20032;-69
2021/12/10 03:21:09;;;;;;;9.27;1.15;;;9.60;90.00;;;;;;5106671;28;20407;-69
2021/12/10 03:23:42;;;;;;;7.13;1.20;;;9.60;89.50;;;;;;5106252;28;20028;-69
2021/12/10 03:26:10;;;;;;;4.22;1.15;;;9.60;89.40;;;;;;5106327;28;20039;-69
2021/12/10 03:28:41;;;;;;;9.18;1.20;;;9.50;89.30;;;;;;5106361;28;20024;-68
2021/12/10 03:31:08;;;;;;;6.68;1.50;;;9.50;89.40;;;;;;5107800;28;20046;-69
2021/12/10 03:33:35;;;;;;;6.28;0.93;;;9.40;89.00;;;;;;5116467;27;20071;-69
2021/12/10 03:36:00;;;;;;;4.90;0.95;;;9.40;88.70;;;;;;5107648;27;20043;-69
2021/12/10 03:38:27;;;;;;;5.75;0.90;;;9.30;88.50;;;;;;5105964;28;20042;-68
2021/12/10 03:40:53;;;;;;;6.07;1.00;;;9.30;88.60;;;;;;5105752;28;20031;-68
2021/12/10 03:43:21;;;;;;;5.00;1.00;;;9.20;88.50;;;;;;5105546;28;20028;-69
2021/12/10 03:45:51;;;;;;;5.25;1.10;;;9.30;88.30;;;;;;5108971;28;20028;-69
2021/12/10 03:48:25;;;;;;;7.13;1.02;;;9.20;88.40;;;;;;5093000;28;20642;-69
2021/12/10 03:50:50;;;;;;;;;;;9.30;88.60;;;;;;5103732;28;20038;-68
2021/12/10 03:53:17;;;;;;;3.50;0.60;;;9.20;88.80;;;;;;5105530;28;19916;-69
2021/12/10 03:55:45;;;;;;;8.35;1.10;;;9.20;89.00;;;;;;5106223;28;20036;-68
2021/12/10 03:58:11;;;;;;;6.15;1.15;;;9.20;88.60;;;;;;5107260;28;20027;-69
2021/12/10 04:00:41;;;;;;;4.10;0.70;;;9.20;88.20;;;;;;5129862;27;20645;-69
2021/12/10 04:03:07;;;;;;;5.25;1.58;;;9.20;88.40;;;;;;5106617;28;20024;-69
2021/12/10 04:05:33;;;;;;;4.95;1.00;;;9.20;88.30;;;;;;5105741;28;20035;-68
2021/12/10 04:07:59;;;;;;;5.50;0.80;;;9.20;88.40;;;;;;5106204;28;20164;-68
2021/12/10 04:10:25;;;;;;;6.13;1.25;;;9.20;88.20;;;;;;5105830;28;20043;-69
2021/12/10 04:12:51;;;;;;;4.80;1.10;;;9.20;88.10;;;;;;5108310;28;20027;-68
2021/12/10 04:15:21;;;;;;;4.30;1.10;;;9.30;88.70;;;;;;5106615;28;20023;-68
2021/12/10 04:17:49;;;;;;;10.32;1.20;;;9.20;88.60;;;;;;5105163;28;20020;-68
2021/12/10 04:20:17;;;;;;;6.57;1.38;;;9.30;88.50;;;;;;5105647;28;20034;-68
2021/12/10 04:22:46;;;;;;;5.10;1.52;;;9.20;87.90;;;;;;5105668;28;20092;-69
2021/12/10 04:25:13;;;;;;;5.25;1.02;;;9.20;87.90;;;;;;5106348;28;20012;-69
2021/12/10 04:27:42;;;;;;;8.23;1.20;;;9.30;88.20;;;;;;5108892;28;20024;-69
2021/12/10 04:30:10;;;;;;;3.72;0.80;;;9.30;88.30;;;;;;5105479;28;20020;-69
2021/12/10 04:32:36;;;;;;;5.28;1.00;;;9.30;88.00;;;;;;5105240;28;20016;-68
2021/12/10 04:35:03;;;;;;;6.35;0.85;;;9.30;87.90;;;;;;5105723;28;20024;-69
2021/12/10 04:37:28;;;;;;;4.60;0.93;;;9.30;87.90;;;;;;5105877;28;20028;-69
2021/12/10 04:39:54;;;;;;;5.07;0.80;;;9.30;87.50;;;;;;5107928;28;20537;-69
2021/12/10 04:42:24;;;;;;;4.88;1.20;;;9.30;87.60;;;;;;5106762;28;20038;-69
2021/12/10 04:44:54;;;;;;;5.20;0.93;;;9.30;87.50;;;;;;5105146;28;20125;-69
2021/12/10 04:47:21;;;;;;;3.58;0.88;;;9.30;87.50;;;;;;5105452;28;20032;-69
2021/12/10 04:49:46;;;;;;;6.63;3.15;;;9.40;87.50;;;;;;5105611;28;20026;-68
2021/12/10 04:52:12;;;;;;;6.85;1.23;;;9.40;87.70;;;;;;5106101;28;20024;-69
2021/12/10 04:54:39;;;;;;;3.65;0.80;;;9.40;86.90;;;;;;5108456;28;20124;-69
2021/12/10 04:57:05;;;;;;;6.18;0.82;;;9.30;87.40;;;;;;5105366;28;20492;-69
2021/12/10 04:59:33;;;;;;;7.55;1.00;;;9.40;87.20;;;;;;5107401;28;20027;-68
2021/12/10 05:02:01;;;;;;;6.55;0.77;;;9.40;87.40;;;;;;5111436;27;20114;-69
2021/12/10 05:04:29;;;;;;;6.78;1.13;;;9.40;87.70;;;;;;5109230;28;20016;-69
2021/12/10 05:06:55;;;;;;;6.30;1.10;;;9.40;87.00;;;;;;5111927;28;20050;-66
2021/12/10 05:09:22;;;;;;;5.88;1.52;;;9.40;87.20;;;;;;5112585;28;20496;-68
2021/12/10 05:11:49;;;;;;;6.80;1.05;;;9.40;87.20;;;;;;5109198;28;20049;-69
2021/12/10 05:14:16;;;;;;;6.28;1.00;;;9.30;87.30;;;;;;5108707;28;20388;-69
2021/12/10 05:16:46;;;;;;;7.40;0.98;;;9.20;87.60;;;;;;5111327;28;20499;-68
2021/12/10 05:19:16;;;;;;;6.22;1.10;;;9.20;87.50;;;;;;5109745;28;20414;-69
2021/12/10 05:21:45;;;;;;;5.50;0.90;;;9.20;87.60;;;;;;5112298;28;20035;-69
2021/12/10 05:24:11;;;;;;;7.75;1.27;;;9.10;87.50;;;;;;5111741;28;20023;-69
2021/12/10 05:26:37;;;;;;;5.57;1.55;;;9.10;87.60;;;;;;5097083;28;20041;-69
2021/12/10 05:29:05;;;;;;;4.00;0.98;;;9.10;88.10;;;;;;5109221;28;20405;-69
2021/12/10 05:31:31;;;;;;;4.93;0.88;;;9.10;88.40;;;;;;5107764;28;20032;-69
2021/12/10 05:33:57;;;;;;;4.45;0.80;;;9.00;88.10;;;;;;5108895;28;20061;-68
2021/12/10 05:36:23;;;;;;;8.07;1.35;;;9.10;87.70;;;;;;5093601;28;20027;-69
2021/12/10 05:38:49;;;;;;;3.88;0.98;;;9.00;88.50;;;;;;5111230;28;20030;-67
2021/12/10 05:41:15;;;;;;;5.57;1.23;;;9.10;87.80;;;;;;5110735;28;20035;-67
2021/12/10 05:43:42;;;;;;;7.20;1.02;;;9.00;87.60;;;;;;5089705;28;20074;-67
2021/12/10 05:46:09;;;;;;;4.22;0.88;;;9.00;87.40;;;;;;5110755;28;20546;-67
2021/12/10 05:48:36;;;;;;;5.57;0.90;;;8.90;87.10;;;;;;5111448;28;20119;-68
2021/12/10 05:51:02;;;;;;;6.72;0.90;;;8.90;86.90;;;;;;5109887;28;20395;-67
2021/12/10 05:53:28;;;;;;;3.53;0.82;;;8.90;86.60;;;;;;5111589;27;20481;-67
2021/12/10 05:55:55;;;;;;;3.58;0.90;;;9.10;86.90;;;;;;5112261;28;20046;-67
2021/12/10 05:58:21;;;;;;;5.50;0.90;;;8.90;86.60;;;;;;5112428;28;20039;-67
2021/12/10 06:01:02;;;;;;;3.88;0.70;;;9.00;86.70;;;;;;5113443;28;20069;-67
2021/12/10 06:03:29;;;;;;;5.65;0.75;;;8.90;86.80;;;;;;5111953;28;20058;-69
2021/12/10 06:05:55;;;;;;;4.85;0.80;;;8.90;86.80;;;;;;5112267;28;20480;-69
2021/12/10 06:08:23;;;;;;;6.03;1.00;;;8.90;87.00;;;;;;5111205;28;20403;-68
2021/12/10 06:10:51;;;;;;;3.80;0.90;;;9.00;87.20;;;;;;5095782;28;20777;-69
2021/12/10 06:13:17;;;;;;;7.28;1.27;;;9.00;87.30;;;;;;5111554;28;20024;-68
2021/12/10 06:15:43;;;;;;;3.95;0.90;;;9.10;87.20;;;;;;5113580;28;20030;-69
2021/12/10 06:18:10;;;;;;;6.40;1.15;;;9.10;87.10;;;;;;5111810;28;20050;-68
2021/12/10 06:20:41;;;;;;;5.00;0.75;;;9.20;87.10;;;;;;5109012;28;20074;-68
2021/12/10 06:23:07;;;;;;;5.10;1.23;;;9.10;86.30;;;;;;5111448;28;20403;-68
2021/12/10 06:25:34;;;;;;;3.97;0.70;;;9.00;86.40;;;;;;5111716;28;20035;-68
2021/12/10 06:28:02;;;;;;;3.15;0.55;;;8.90;85.70;;;;;;5111371;28;20117;-67
2021/12/10 06:30:30;;;;;;;3.65;0.65;;;8.90;86.40;;;;;;5110716;28;20499;-67
2021/12/10 06:32:58;;;;;;;2.42;0.70;;;8.80;86.40;;;;;;5109683;28;20019;-67
2021/12/10 06:35:27;;;;;;;2.92;0.45;;;8.70;85.90;;;;;;5109217;28;20023;-68
2021/12/10 06:37:53;;;;;;;2.83;0.60;;;8.60;86.20;;;;;;5109274;28;20020;-68
2021/12/10 06:40:22;;;;;;;2.08;0.40;;;8.50;86.40;;;;;;5109663;28;20608;-68
2021/12/10 06:42:48;;;;;;;1.17;0.30;;;8.40;86.30;;;;;;5112447;28;20030;-68
2021/12/10 06:45:17;;;;;;;3.53;0.60;;;8.40;86.30;;;;;;5111636;28;20028;-67
2021/12/10 06:47:48;;;;;;;3.95;0.68;;;8.40;86.30;;;;;;5109619;28;20038;-67
2021/12/10 06:50:18;;;;;;;2.67;0.70;;;8.30;86.60;;;;;;5109252;28;20480;-69
2021/12/10 06:52:44;;;;;;;4.30;0.73;;;8.20;86.60;;;;;;5109295;28;20098;-68
2021/12/10 06:55:16;;;;;;;4.57;1.00;;;8.30;87.10;;;;;;5110139;28;20131;-68
2021/12/10 06:57:42;;;;;;;4.18;1.33;;;8.40;86.70;;;;;;5108600;28;20031;-69
2021/12/10 07:00:14;;;;;;;4.20;0.70;;;8.30;86.70;;;;;;5109006;28;20027;-68
2021/12/10 07:02:40;;;;;;;4.28;0.65;;;8.30;86.60;;;;;;5110499;27;20568;-69
2021/12/10 07:05:07;;;;;;;3.50;0.50;;;8.30;86.60;;;;;;5109338;28;20050;-68
2021/12/10 07:07:33;;;;;;;4.38;0.60;;;8.30;86.90;;;;;;5109656;28;20031;-68
2021/12/10 07:10:03;;;;;;;4.00;0.50;;;8.30;86.50;;;;;;5111497;28;20028;-69
2021/12/10 07:12:28;;;;;;;2.72;0.88;;;8.30;86.20;;;;;;5110808;28;20072;-68
2021/12/10 07:14:57;;;;;;;2.72;0.60;;;8.30;86.20;;;;;;5107536;28;20032;-68
2021/12/10 07:17:23;;;;;;;2.17;0.50;;;8.30;86.20;;;;;;5103987;28;20034;-69
2021/12/10 07:19:49;;;;;;;2.20;0.60;;;8.30;86.00;;;;;;5093349;28;20031;-69
2021/12/10 07:22:14;;;;;;;4.82;0.50;;;8.30;85.80;;;;;;5110657;28;20092;-69
2021/12/10 07:24:40;;;;;;;3.50;0.80;;;8.40;85.80;;;;;;5111947;28;20499;-69
2021/12/10 07:27:09;;;;;;;4.30;0.95;;;8.30;85.40;;;;;;5109036;28;20036;-69
2021/12/10 07:29:35;;;;;;;2.50;0.50;;;8.30;85.60;;;;;;5108592;28;20502;-69
2021/12/10 07:32:02;;;;;;;2.78;0.63;;;8.40;85.40;;;;;;5108721;28;20031;-69
2021/12/10 07:34:27;;;;;;;4.43;0.52;;;8.40;85.40;;;;;;5109274;28;20051;-69
2021/12/10 07:36:53;;;;;;;2.65;0.52;;;8.40;85.40;;;;;;5110825;28;20058;-69
2021/12/10 07:39:19;;;;;;;2.63;0.70;;;8.30;85.30;;;;;;5109372;28;20020;-69
2021/12/10 07:41:44;;;;;;;1.75;0.45;;;8.30;85.20;;;;;;5107158;28;20027;-69
2021/12/10 07:44:11;;;;;;;2.75;0.68;;;8.30;85.60;;;;;;5108985;28;20129;-69
2021/12/10 07:46:39;;;;;;;1.45;0.40;;;8.40;85.80;;;;;;5106656;28;20036;-70
2021/12/10 07:49:13;;;;;;;3.55;0.60;;;8.30;85.80;;;;;;5109374;28;20060;-69
2021/12/10 07:51:39;;;;;;;2.78;0.55;;;8.30;85.40;;;;;;5110891;28;20068;-69
2021/12/10 07:54:05;;;;;;;3.28;0.55;;;8.30;85.80;;;;;;5109003;28;20491;-69
2021/12/10 07:56:31;;;;;;;3.03;0.60;;;8.30;86.10;;;;;;5109653;28;20070;-69
2021/12/10 07:58:58;;;;;;;3.55;1.10;;;8.30;86.20;;;;;;5109526;28;20031;-69
2021/12/10 08:01:27;;;;;;;4.63;0.75;;;8.40;85.90;;;;;;5110687;28;20024;-69
2021/12/10 08:03:55;;;;;;;3.58;0.80;;;8.40;85.50;;;;;;5109886;28;20421;-68
2021/12/10 08:06:21;;;;;;;3.92;0.75;;;8.30;85.90;;;;;;5123687;27;20066;-68
2021/12/10 08:08:47;;;;;;;3.92;0.70;;;8.40;85.60;;;;;;5108137;28;20058;-68
2021/12/10 08:11:14;;;;;;;2.92;0.80;;;8.40;85.70;;;;;;5111017;28;20494;-68
2021/12/10 08:13:40;;;;;;;2.60;0.50;;;8.40;85.50;;;;;;5122377;27;20160;-68
2021/12/10 08:16:06;;;;;;;2.08;0.55;;;8.40;85.40;;;;;;5115041;28;20102;-68
2021/12/10 08:18:31;;;;;;;4.25;0.50;;;8.50;85.30;;;;;;5119565;28;20023;-68
2021/12/10 08:20:58;;;;;;;1.45;0.40;;;8.60;85.70;;;;;;5114049;28;20636;-68
2021/12/10 08:23:24;;;;;;;2.50;0.50;;;8.70;85.40;;;;;;5111288;28;20624;-68
2021/12/10 08:25:51;;;;;;;3.20;0.93;;;8.70;84.90;;;;;;5123448;28;20122;-67
2021/12/10 08:28:21;;;;;;;4.63;0.70;;;8.80;85.40;;;;;;5100904;28;20032;-68
2021/12/10 08:30:47;;;;;;;2.30;0.60;;;8.80;84.60;;;;;;5113148;28;20045;-68
2021/12/10 08:33:14;;;;;;;4.00;1.10;;;8.80;84.30;;;;;;5114803;27;20020;-68
2021/12/10 08:35:44;;;;;;;2.03;0.55;;;8.90;84.70;;;;;;5114007;27;20487;-68
2021/12/10 08:38:10;;;;;;;2.65;0.50;;;9.00;84.90;;;;;;5114154;27;20020;-69
2021/12/10 08:40:40;;;;;;;2.53;0.50;;;9.00;84.70;;;;;;5095547;28;20031;-68
2021/12/10 08:43:06;;;;;;;4.05;0.60;;;8.90;84.00;;;;;;5112872;27;20106;-69
2021/12/10 08:45:34;;;;;;;2.40;0.50;;;8.80;84.00;;;;;;5115646;27;20118;-69
2021/12/10 08:48:00;;;;;;;2.47;0.70;;;8.80;84.30;;;;;;5112453;27;20039;-66
2021/12/10 08:50:27;;;;;;;2.65;0.50;;;8.80;85.40;;;;;;5105409;27;20567;-68
2021/12/10 08:53:05;;;;;;;4.70;0.90;;;8.80;85.20;;;;;;5111606;27;20555;-67
2021/12/10 08:55:34;;;;;;;3.03;0.60;;;8.80;84.90;;;;;;5089535;28;20051;-67
2021/12/10 08:58:00;;;;;;;2.75;0.77;;;8.70;85.10;;;;;;5111799;28;20508;-67
2021/12/10 09:00:27;;;;;;;2.53;0.80;;;8.60;85.30;;;;;;5110848;28;20023;-68
2021/12/10 09:02:55;;;;;;;3.20;0.60;;;8.60;85.50;;;;;;5092747;28;20534;-67
2021/12/10 09:05:21;;;;;;;5.35;1.55;;;8.60;85.90;;;;;;5107758;27;20040;-67
2021/12/10 09:07:47;;;;;;;3.03;0.43;;;8.70;86.00;;;;;;5084234;27;20027;-68
2021/12/10 09:10:17;;;;;;;1.75;0.60;;;8.70;85.30;;;;;;5106561;27;20020;-70
2021/12/10 09:12:44;;;;;;;2.55;0.65;;;8.70;85.30;;;;;;5111089;27;20144;-67
2021/12/10 09:15:12;;;;;;;1.92;0.50;;;8.60;85.90;;;;;;5110505;27;20031;-68
2021/12/10 09:17:40;;;;;;;2.42;0.40;;;8.70;85.60;;;;;;5111088;27;20085;-68
2021/12/10 09:20:13;;;;;;;3.25;0.60;;;9.10;86.30;;;;;;5110553;27;20051;-67
2021/12/10 09:22:40;;;;;;;4.00;0.68;;;9.40;86.20;;;;;;5091673;28;20458;-66
2021/12/10 09:25:07;;;;;;;1.95;0.63;;;10.00;87.10;;;;;;5112224;27;20064;-65
2021/12/10 09:27:34;;;;;;;2.17;0.73;;;10.50;85.60;;;;;;5111786;27;20583;-66
2021/12/10 09:30:00;;;;;;;1.10;0.57;;;10.90;83.70;;;;;;5111254;27;20026;-66
2021/12/10 09:32:26;;;;;;;3.38;0.70;;;11.40;83.80;;;;;;5111543;27;20404;-66
2021/12/10 09:34:56;;;;;;;2.92;0.60;;;11.60;81.80;;;;;;5108610;27;20062;-66
2021/12/10 09:37:24;;;;;;;2.92;0.70;;;11.90;80.70;;;;;;5109805;27;20031;-66
2021/12/10 09:39:51;;;;;;;4.97;0.93;;;12.20;79.70;;;;;;5109908;27;20550;-66
2021/12/10 09:42:19;;;;;;;1.80;0.50;;;12.10;78.30;;;;;;5109714;28;20618;-66
2021/12/10 09:44:46;;;;;;;1.67;0.60;;;12.50;79.50;;;;;;5109325;28;20031;-66
2021/12/10 09:47:15;;;;;;;2.20;0.43;;;12.30;76.80;;;;;;5108173;28;20042;-67
2021/12/10 09:49:46;;;;;;;2.08;0.50;;;12.00;76.20;;;;;;5109114;27;20019;-67
2021/12/10 09:52:12;;;;;;;1.10;0.43;;;11.70;76.40;;;;;;5107978;27;20051;-66
2021/12/10 09:54:39;;;;;;;2.13;0.50;;;11.50;75.90;;;;;;5109132;28;20082;-67
2021/12/10 09:57:27;;;;;;;3.38;0.63;;;11.20;76.40;;;;;;5109778;28;20023;-67
2021/12/10 09:59:54;;;;;;;2.47;0.60;;;11.00;77.40;;;;;;5107622;27;20032;-66
2021/12/10 10:02:22;;;;;;;3.83;0.57;;;11.10;79.20;;;;;;5110494;27;20032;-67
2021/12/10 10:04:50;;;;;;;3.47;0.73;;;11.30;78.90;;;;;;5106696;28;20111;-66
2021/12/10 10:07:28;;;;;;;2.15;0.40;;;11.40;78.60;;;;;;5108349;28;20228;-68
2021/12/10 10:10:04;;;;;;;3.42;0.50;;;11.40;78.60;;;;;;5125942;27;20064;-68
2021/12/10 10:12:34;;;;;;;2.10;0.60;;;11.70;79.60;;;;;;5126243;27;20407;-68
2021/12/10 10:15:05;;;;;;;3.30;0.60;;;12.30;78.40;;;;;;5110127;28;20069;-67
2021/12/10 10:17:30;;;;;;;2.28;0.52;;;12.60;76.10;;;;;;5108871;27;20127;-67
2021/12/10 10:19:56;;;;;;;2.60;0.60;;;12.40;75.00;;;;;;5109115;28;20098;-66
2021/12/10 10:22:25;;;;;;;3.17;0.60;;;12.10;74.80;;;;;;5109271;28;20055;-67
2021/12/10 10:24:52;;;;;;;3.00;0.70;;;11.80;74.90;;;;;;5108645;28;20083;-67
2021/12/10 10:27:28;;;;;;;3.55;0.98;;;11.60;75.30;;;;;;5109354;28;20472;-67
2021/12/10 10:30:13;;;;;;;3.20;0.88;;;11.40;77.20;;;;;;5109043;28;20019;-65
2021/12/10 10:32:44;;;;;;;2.60;0.40;;;11.80;79.60;;;;;;5108101;28;20095;-65
2021/12/10 10:35:15;;;;;;;3.95;0.98;;;12.10;77.70;;;;;;5108310;28;20020;-65
2021/12/10 10:37:41;;;;;;;4.05;0.85;;;12.30;77.10;;;;;;5109012;28;20019;-66
2021/12/10 10:40:11;;;;;;;2.40;0.75;;;12.60;77.40;;;;;;5111426;28;20054;-69
2021/12/10 10:42:38;;;;;;;3.45;0.82;;;12.90;76.90;;;;;;5098477;28;20034;-70
2021/12/10 10:45:08;;;;;;;2.05;0.70;;;13.00;75.20;;;;;;5108932;28;20115;-70
2021/12/10 10:47:35;;;;;;;6.60;1.33;;;13.00;75.60;;;;;;5108482;28;20039;-73
2021/12/10 10:50:12;;;;;;;5.30;1.27;;;13.00;74.60;;;;;;5108772;28;20019;-72
2021/12/10 10:52:43;;;;;;;7.20;1.20;;;13.00;75.20;;;;;;5110351;28;20023;-67
2021/12/10 10:55:12;;;;;;;3.50;1.00;;;12.80;74.60;;;;;;5109725;27;20040;-71
2021/12/10 10:57:46;;;;;;;7.60;1.08;;;12.60;74.20;;;;;;5119663;27;20069;-71
2021/12/10 11:00:29;;;;;;;3.70;0.82;;;12.30;73.80;;;;;;5109471;28;20032;-69
2021/12/10 11:03:02;;;;;;;6.70;1.50;;;12.00;74.20;;;;;;5110524;27;20068;-69
2021/12/10 11:05:29;;;;;;;4.68;0.98;;;11.70;74.70;;;;;;5113819;27;20027;-68
2021/12/10 11:07:59;;;;;;;3.47;0.73;;;11.50;75.50;;;;;;5108059;27;20496;-70
2021/12/10 11:10:38;;;;;;;4.30;0.90;;;11.20;75.50;;;;;;5106884;27;20031;-70
2021/12/10 11:13:21;;;;;;;6.10;0.90;;;11.00;76.20;;;;;;5112875;27;20019;-69
2021/12/10 11:16:00;;;;;;;4.93;1.10;;;10.80;76.80;;;;;;5110899;27;20020;-63
2021/12/10 11:18:27;;;;;;;4.95;0.95;;;10.80;77.50;;;;;;5112580;27;20038;-63
2021/12/10 11:20:53;;;;;;;5.25;1.27;;;10.90;77.60;;;;;;5114267;27;20023;-63
2021/12/10 11:23:25;;;;;;;5.05;1.30;;;11.10;78.80;;;;;;5117409;27;20031;-62
2021/12/10 11:25:53;;;;;;;4.43;0.90;;;11.40;78.50;;;;;;5096267;28;20054;-63
2021/12/10 11:28:26;;;;;;;6.40;1.30;;;11.70;78.10;;;;;;5114312;27;20027;-63
2021/12/10 11:31:03;;;;;;;3.33;0.95;;;11.70;77.40;;;;;;5111900;27;20095;-62
2021/12/10 11:33:32;;;;;;;9.13;1.90;;;11.60;76.70;;;;;;5117471;27;20023;-62
2021/12/10 11:36:05;;;;;;;4.07;1.10;;;11.30;76.20;;;;;;5111503;27;20042;-63
2021/12/10 11:38:33;;;;;;;7.05;1.42;;;11.10;76.50;;;;;;5111046;28;20020;-63
2021/12/10 11:41:09;;;;;;;5.50;1.10;;;10.80;76.60;;;;;;5110557;27;20399;-65
2021/12/10 11:44:07;;;;;;;4.95;0.93;;;10.50;77.20;;;;;;5110115;27;20505;-66
2021/12/10 11:49:39;;;;;;;4.88;0.95;;;10.10;77.70;;;;;;5048760;28;20029;-65
2021/12/10 11:52:20;;;;;;;3.53;0.70;;;10.20;78.70;;;;;;5049016;28;20470;-66
2021/12/10 11:55:02;;;;;;;3.42;0.95;;;10.20;78.10;;;;;;5040978;28;20521;-66
2021/12/10 11:57:42;;;;;;;4.13;0.95;;;10.00;77.40;;;;;;5046665;28;20382;-66
2021/12/10 12:00:12;;;;;;;3.10;0.73;;;9.80;78.80;;;;;;5040969;28;20029;-65
2021/12/10 12:02:52;;;;;;;4.65;0.75;;;9.70;78.60;;;;;;5037896;28;20033;-66
2021/12/10 12:05:26;;;;;;;5.03;1.25;;;9.70;79.40;;;;;;5040748;28;20025;-66
2021/12/10 12:07:53;;;;;;;5.65;0.90;;;10.10;80.90;;;;;;5034771;28;20041;-66
2021/12/10 12:10:31;;;;;;;6.53;1.30;;;10.50;79.90;;;;;;5044838;28;20160;-67
2021/12/10 12:15:43;;;;;;;4.65;0.75;;;11.20;78.30;;;;;;5047153;28;20025;-67
2021/12/10 12:18:16;;;;;;;4.95;1.13;;;11.40;78.20;;;;;;5028471;28;20595;-66
2021/12/10 12:20:52;;;;;;;3.53;0.80;;;11.70;78.30;;;;;;5043869;28;20048;-71
2021/12/10 12:26:21;;;;;;;3.65;0.88;;;11.90;75.90;;;;;;5058495;28;20055;-63
2021/12/10 12:28:52;;;;;;;4.05;0.85;;;11.80;75.60;;;;;;5106285;28;20035;-63
2021/12/10 12:31:23;;;;;;;3.72;0.77;;;12.00;75.60;;;;;;5105469;28;20046;-63
2021/12/10 12:33:59;;;;;;;3.65;0.60;;;11.90;75.20;;;;;;5104727;28;20023;-63
2021/12/10 12:36:51;;;;;;;4.05;1.02;;;11.90;75.60;;;;;;5108073;28;20492;-63
2021/12/10 12:39:32;;;;;;;3.38;0.60;;;11.90;75.50;;;;;;5097732;28;20463;-63
2021/12/10 12:42:01;;;;;;;3.30;0.80;;;11.90;75.10;;;;;;5094060;28;20559;-69
2021/12/10 12:44:30;;;;;;;5.18;0.88;;;11.60;73.60;;;;;;5086444;28;20023;-67
2021/12/10 12:46:59;;;;;;;5.50;1.17;;;11.50;74.10;;;;;;5084903;28;20043;-67
2021/12/10 12:49:30;;;;;;;4.22;1.10;;;11.10;74.50;;;;;;5103494;28;20051;-67
2021/12/10 12:52:06;;;;;;;3.83;0.75;;;10.80;75.00;;;;;;5101980;28;20030;-66
2021/12/10 12:54:33;;;;;;;2.58;0.80;;;10.50;75.00;;;;;;5104068;28;20735;-66
2021/12/10 12:57:01;;;;;;;2.72;0.73;;;10.30;75.30;;;;;;5103761;28;20032;-66
2021/12/10 12:59:28;;;;;;;4.05;1.05;;;10.00;75.30;;;;;;5103748;28;20032;-64
2021/12/10 13:02:00;;;;;;;4.25;0.80;;;9.80;76.40;;;;;;5085411;28;20024;-63
2021/12/10 13:04:38;;;;;;;4.90;0.88;;;9.70;77.10;;;;;;5103031;28;20073;-66
2021/12/10 13:07:21;;;;;;;4.03;0.57;;;9.70;77.60;;;;;;5105021;28;20028;-64
2021/12/10 13:09:56;;;;;;;3.53;0.75;;;9.60;77.40;;;;;;5106709;28;20036;-66
2021/12/10 13:12:41;;;;;;;4.72;0.75;;;9.40;77.70;;;;;;5106069;28;20039;-64
2021/12/10 13:15:13;;;;;;;2.78;1.00;;;9.40;78.70;;;;;;5106307;28;20028;-66
2021/12/10 13:17:45;;;;;;;3.92;0.63;;;9.40;78.40;;;;;;5110159;27;20499;-64
2021/12/10 13:20:19;;;;;;;3.03;0.50;;;9.30;78.70;;;;;;5110515;28;20107;-66
2021/12/10 13:22:45;;;;;;;2.95;0.68;;;9.30;78.00;;;;;;5112184;28;20101;-65
2021/12/10 13:25:15;;;;;;;2.22;0.40;;;9.10;79.10;;;;;;5112528;28;20099;-64